La Plata, MO (63549)

3:41 PM CDT on May 03, 2015 (GMT -0500)
La Plata | | Change Station
CLOSE
Current Station
Personal Weather Station
Location: La Plata, MO
Elevation: 928 ft
Nearby Weather Stations

Elev 928 ft 40.03 °N, 92.48 °W | Updated 0 second ago

Clear
Clear
81.0 °F
Feels Like 81 °F
N
6.0
Wind Variable Wind from East
Gusts 12.1 mph

Today
High -- | Low -- °F
--% Chance of Precip.
Yesterday
High -- | Low -- °F
Precip. -- in
6:07 AM 8:06 PM
Full, 100% visible
Pressure 29.87 in
Visibility 10.0 miles
Clouds Few 12000 ft
Heat Index 81 °F
Dew Point 59 °F
Humidity 47%
Rainfall 0.01 in
Snow Depth Not available.
UV 8 out of 12
Pollen 8.90 out of 12
Air Quality Not available.
Flu Activity Sporadic
METAR KIRK 031955Z AUTO 19010G24KT 10SM FEW120 26/14 A2988 RMK AO2 PK WND 20026/1912 SLP115 T02610144

More Conditions Fewer Conditions

Pressure 29.87 in
Visibility 10.0 miles
Clouds Few 12000 ft
Heat Index 81 °F
Dew Point 59 °F
Humidity 47%
Rainfall 0.01 in
Snow Depth Not available.
UV 8 out of 12
Pollen 8.90 out of 12
Air Quality Not available.
Flu Activity Sporadic
METAR KIRK 031955Z AUTO 19010G24KT 10SM FEW120 26/14 A2988 RMK AO2 PK WND 20026/1912 SLP115 T02610144

More Conditions Fewer Conditions

Nepal has a long way to go to dig out and rebuild from a devastating earthquake. We have teamed up with several charities and organizations to make contributing to the relief effort as easy as possible.
How you can help: Portlight Strategies | Red Cross

10-Day Weather Forecast

Almanac

Astronomy

May. 03, 2015 Rise Set
Actual Time
Civil Twilight
Nautical Twilight
Astronomical Twilight
Moon
Length of Visible Light
Length of Day
Tomorrow will be .
, % of the Moon is Illuminated

Today's Extremes

State Highs State Lows

Community

WunderPhotos

Upload Photos

1,818,364 photos uploaded!

WunderBlogs® & News

Nearby

Air Quality

  Air Quality AQ Index Pollutant
Not available.

Snow Depth

Station Depth Elevation

Earthquake Activity

City Distance Mag. Time & Date
Minimum magnitude displayed is 2.5.

Coastal Water Temperatures

Place Temperature

Stations

Nearby Weather Stations

Station Location Temp. Windchill Dew Point Humidity Wind Precip. Elev Updated Type